Time;durP1;ratioP1;P1;durP2;ratioP2;P2;SDS_P1;SDS_P2;PMS_P1;PMS_P2;Temp;Humidity;BMP_temperature;BMP_pressure;BME280_temperature;BME280_humidity;BME280_pressure;Samples;Min_cycle;Max_cycle;Signal;HPM_P1;HPM_P2
2021/12/29 00:00:52;;;;;;;1.45;0.40;;;17.10;99.90;;;;;;5006625;28;20593;-69
2021/12/29 00:03:20;;;;;;;2.05;0.63;;;17.20;99.90;;;;;;5005456;28;20026;-68
2021/12/29 00:05:47;;;;;;;2.85;0.77;;;17.50;99.90;;;;;;5005177;28;20025;-72
2021/12/29 00:08:14;;;;;;;2.83;0.77;;;18.00;99.90;;;;;;5006639;28;20030;-70
2021/12/29 00:10:42;;;;;;;1.85;0.82;;;17.80;99.90;;;;;;4998872;28;20029;-68
2021/12/29 00:13:09;;;;;;;0.65;0.25;;;17.90;99.90;;;;;;5006159;28;20054;-68
2021/12/29 00:15:36;;;;;;;3.05;0.80;;;17.80;99.90;;;;;;5002038;28;20101;-68
2021/12/29 00:18:04;;;;;;;2.83;0.38;;;17.80;99.90;;;;;;5005384;28;20059;-68
2021/12/29 00:20:32;;;;;;;1.20;0.30;;;18.00;99.90;;;;;;5006294;28;20063;-68
2021/12/29 00:23:02;;;;;;;2.25;0.30;;;18.20;99.90;;;;;;5005009;28;20026;-67
2021/12/29 00:25:30;;;;;;;0.32;0.30;;;18.20;99.90;;;;;;5004502;28;20022;-68
2021/12/29 00:27:59;;;;;;;0.55;0.40;;;18.30;99.90;;;;;;5002362;28;20109;-69
2021/12/29 00:30:27;;;;;;;0.15;0.15;;;18.30;99.90;;;;;;5006405;28;20057;-76
2021/12/29 00:32:55;;;;;;;1.52;0.35;;;18.20;99.90;;;;;;5005170;28;20036;-70
2021/12/29 00:35:22;;;;;;;1.42;0.20;;;18.20;99.90;;;;;;5005289;28;20045;-73
2021/12/29 00:37:50;;;;;;;2.00;0.50;;;18.00;99.90;;;;;;5005652;28;20035;-68
2021/12/29 00:40:17;;;;;;;0.93;0.20;;;17.80;99.90;;;;;;5001163;28;20037;-69
2021/12/29 00:42:45;;;;;;;0.93;0.52;;;18.00;99.90;;;;;;5002324;28;20022;-68
2021/12/29 00:45:12;;;;;;;2.33;0.38;;;17.90;99.90;;;;;;5003668;28;20018;-71
2021/12/29 00:47:40;;;;;;;1.83;0.28;;;17.90;99.90;;;;;;5001619;28;20101;-68
2021/12/29 00:50:13;;;;;;;2.28;0.57;;;17.80;99.90;;;;;;5000065;28;20101;-68
2021/12/29 00:52:40;;;;;;;2.50;0.52;;;17.70;99.90;;;;;;5004047;28;20018;-68
2021/12/29 00:55:08;;;;;;;0.30;0.17;;;17.60;99.90;;;;;;5006065;28;20073;-69
2021/12/29 00:57:36;;;;;;;2.33;0.30;;;17.60;99.90;;;;;;5002908;28;20045;-69
2021/12/29 01:00:07;;;;;;;1.10;0.40;;;17.70;99.90;;;;;;4998031;28;20189;-69
2021/12/29 01:02:34;;;;;;;4.88;0.60;;;17.90;99.90;;;;;;4995437;28;20022;-69
2021/12/29 01:05:03;;;;;;;2.05;0.90;;;17.80;99.90;;;;;;5000389;28;20026;-71
2021/12/29 01:07:30;;;;;;;1.58;0.70;;;17.50;99.90;;;;;;5007536;28;20394;-71
2021/12/29 01:09:59;;;;;;;1.15;0.38;;;17.70;99.90;;;;;;5002149;28;20034;-69
2021/12/29 01:12:27;;;;;;;2.15;0.40;;;17.70;99.90;;;;;;4998006;28;20026;-69
2021/12/29 01:14:55;;;;;;;4.93;0.47;;;17.90;99.90;;;;;;5000226;28;20022;-69
2021/12/29 01:17:24;;;;;;;2.72;0.50;;;18.20;99.90;;;;;;4998269;28;20034;-68
2021/12/29 01:19:55;;;;;;;2.30;0.45;;;18.50;99.90;;;;;;4999869;28;20410;-71
2021/12/29 01:22:23;;;;;;;1.70;0.40;;;18.70;99.90;;;;;;4998067;28;20022;-68
2021/12/29 01:24:50;;;;;;;1.05;0.30;;;18.90;99.90;;;;;;5003285;28;20544;-68
2021/12/29 01:27:18;;;;;;;1.25;0.50;;;19.10;99.90;;;;;;5000589;28;20077;-69
2021/12/29 01:29:47;;;;;;;1.15;0.60;;;19.10;99.90;;;;;;5003917;28;20463;-72
2021/12/29 01:32:15;;;;;;;0.63;0.10;;;19.00;99.90;;;;;;5004881;28;20022;-68
2021/12/29 01:34:42;;;;;;;2.00;0.60;;;18.90;99.90;;;;;;5003606;28;20018;-69
2021/12/29 01:37:10;;;;;;;2.38;0.57;;;18.90;99.90;;;;;;5003317;28;20075;-68
2021/12/29 01:39:38;;;;;;;1.92;0.70;;;19.10;99.90;;;;;;5000582;28;20034;-69
2021/12/29 01:42:05;;;;;;;1.17;0.30;;;19.00;99.90;;;;;;5003763;28;20364;-68
2021/12/29 01:44:33;;;;;;;2.35;0.20;;;19.20;99.90;;;;;;5004826;28;20045;-69
2021/12/29 01:47:00;;;;;;;3.75;0.20;;;19.30;99.90;;;;;;5002292;28;20021;-68
2021/12/29 01:49:28;;;;;;;3.10;0.45;;;19.50;99.90;;;;;;5004403;28;20344;-69
2021/12/29 01:52:12;;;;;;;1.45;0.30;;;19.60;99.90;;;;;;5002837;28;20098;-72
2021/12/29 01:54:40;;;;;;;1.42;0.30;;;19.90;99.90;;;;;;5000684;28;20490;-68
2021/12/29 01:57:10;;;;;;;0.90;0.55;;;19.90;99.90;;;;;;4998854;28;20084;-70
2021/12/29 01:59:38;;;;;;;5.47;0.55;;;19.80;99.90;;;;;;5010357;28;20080;-73
2021/12/29 02:02:06;;;;;;;2.20;0.30;;;19.60;99.90;;;;;;5010646;28;20020;-68
2021/12/29 02:04:33;;;;;;;2.25;0.60;;;19.80;99.90;;;;;;5010134;28;20545;-69
2021/12/29 02:07:00;;;;;;;0.85;0.35;;;19.60;99.90;;;;;;5010351;28;20065;-69
2021/12/29 02:09:28;;;;;;;0.40;0.20;;;19.60;99.90;;;;;;5010556;28;20022;-69
2021/12/29 02:11:55;;;;;;;1.52;0.35;;;19.60;99.90;;;;;;5010279;28;20088;-69
2021/12/29 02:14:23;;;;;;;2.72;0.52;;;19.70;99.90;;;;;;5010448;28;20026;-68
2021/12/29 02:16:51;;;;;;;1.00;0.20;;;19.70;99.90;;;;;;5010163;28;20081;-68
2021/12/29 02:19:19;;;;;;;1.65;0.73;;;19.70;99.90;;;;;;5008371;28;20117;-68
2021/12/29 02:21:56;;;;;;;6.90;0.63;;;19.60;99.90;;;;;;5003089;28;20022;-69
2021/12/29 02:24:35;;;;;;;1.08;0.20;;;19.70;99.90;;;;;;5003288;28;20036;-68
2021/12/29 02:27:05;;;;;;;2.33;0.50;;;19.80;99.90;;;;;;5003300;28;20081;-68
2021/12/29 02:29:33;;;;;;;2.13;0.45;;;19.80;99.90;;;;;;5004116;28;20352;-68
2021/12/29 02:32:01;;;;;;;1.60;0.47;;;20.00;99.90;;;;;;5002812;28;20532;-69
2021/12/29 02:34:29;;;;;;;1.00;0.28;;;20.00;99.90;;;;;;5002361;28;20030;-68
2021/12/29 02:36:59;;;;;;;0.85;0.20;;;20.20;99.90;;;;;;5003342;28;20063;-72
2021/12/29 02:39:26;;;;;;;0.40;0.20;;;20.20;99.90;;;;;;5007928;28;20033;-69
2021/12/29 02:41:54;;;;;;;0.82;0.40;;;20.00;99.90;;;;;;5008293;28;20022;-68
2021/12/29 02:44:27;;;;;;;0.70;0.40;;;20.00;99.90;;;;;;4991436;28;20084;-70
2021/12/29 02:46:56;;;;;;;0.93;0.30;;;20.10;99.90;;;;;;4997083;28;20356;-68
2021/12/29 02:49:26;;;;;;;1.45;0.25;;;20.50;99.90;;;;;;5000836;28;20026;-68
2021/12/29 02:51:54;;;;;;;1.08;0.15;;;20.70;99.90;;;;;;4992923;28;20053;-71
2021/12/29 02:54:22;;;;;;;2.20;0.40;;;20.70;99.90;;;;;;4993848;28;20053;-69
2021/12/29 02:56:54;;;;;;;1.73;0.93;;;20.80;99.90;;;;;;4991862;28;20033;-69
2021/12/29 02:59:23;;;;;;;2.80;0.80;;;20.90;99.90;;;;;;4991717;28;20395;-69
2021/12/29 03:01:51;;;;;;;1.05;0.15;;;21.20;99.90;;;;;;4990249;28;20068;-68
2021/12/29 03:04:19;;;;;;;0.63;0.32;;;21.10;99.90;;;;;;4990319;28;20550;-68
2021/12/29 03:06:46;;;;;;;0.70;0.22;;;20.90;99.90;;;;;;4994266;28;20027;-68
2021/12/29 03:09:19;;;;;;;1.00;0.30;;;20.50;99.90;;;;;;4993459;28;20089;-69
2021/12/29 03:11:47;;;;;;;0.65;0.10;;;20.40;99.90;;;;;;4996250;28;20029;-69
2021/12/29 03:14:15;;;;;;;2.20;0.30;;;20.20;99.90;;;;;;4997484;28;20458;-68
2021/12/29 03:16:42;;;;;;;1.40;0.20;;;20.10;99.90;;;;;;4997455;28;20034;-68
2021/12/29 03:19:10;;;;;;;0.75;0.30;;;20.00;99.90;;;;;;4997336;28;20031;-68
2021/12/29 03:21:38;;;;;;;2.00;0.30;;;20.10;99.90;;;;;;4997618;28;20030;-68
2021/12/29 03:24:06;;;;;;;1.05;0.35;;;20.10;99.90;;;;;;5001151;28;20483;-68
2021/12/29 03:26:34;;;;;;;1.63;0.20;;;20.50;99.90;;;;;;5016549;28;20080;-68
2021/12/29 03:29:02;;;;;;;0.57;0.20;;;20.90;99.90;;;;;;5016133;28;20036;-68
2021/12/29 03:31:32;;;;;;;7.18;0.63;;;21.10;99.90;;;;;;5016694;28;20018;-68
2021/12/29 03:34:00;;;;;;;1.80;0.20;;;21.60;99.90;;;;;;5016758;28;20025;-69
2021/12/29 03:36:28;;;;;;;0.77;0.32;;;22.00;99.90;;;;;;5016317;28;20022;-69
2021/12/29 03:38:56;;;;;;;0.95;0.30;;;21.90;99.90;;;;;;5016475;28;20042;-67
2021/12/29 03:41:24;;;;;;;1.15;0.17;;;21.80;99.90;;;;;;5016707;28;20022;-68
2021/12/29 03:43:52;;;;;;;0.43;0.13;;;22.40;99.90;;;;;;5016234;28;20489;-68
2021/12/29 03:46:20;;;;;;;0.60;0.30;;;22.50;99.90;;;;;;5000930;28;20084;-68
2021/12/29 03:48:48;;;;;;;1.67;0.30;;;22.80;99.90;;;;;;4996146;28;20430;-68
2021/12/29 03:51:16;;;;;;;1.00;0.20;;;23.20;99.90;;;;;;4992553;28;20023;-68
2021/12/29 03:53:44;;;;;;;2.60;0.38;;;23.00;99.90;;;;;;4996306;28;20022;-68
2021/12/29 03:56:11;;;;;;;1.65;0.17;;;22.50;99.90;;;;;;4993191;28;20033;-68
2021/12/29 03:58:39;;;;;;;1.77;0.40;;;22.00;99.90;;;;;;4996457;28;20042;-68
2021/12/29 04:01:11;;;;;;;1.20;0.40;;;21.80;99.90;;;;;;4993052;28;20046;-70
2021/12/29 04:03:42;;;;;;;3.17;0.40;;;21.50;99.90;;;;;;4994575;28;20502;-68
2021/12/29 04:06:10;;;;;;;5.22;0.50;;;21.10;99.90;;;;;;4990240;28;20092;-68
2021/12/29 04:08:37;;;;;;;0.73;0.50;;;21.00;99.90;;;;;;4989021;28;20046;-68
2021/12/29 04:11:04;;;;;;;1.17;0.32;;;20.80;99.90;;;;;;4993575;28;20057;-68
2021/12/29 04:13:32;;;;;;;3.50;0.60;;;20.60;99.90;;;;;;4991876;28;20054;-69
2021/12/29 04:15:59;;;;;;;5.55;0.68;;;20.50;99.90;;;;;;4994539;28;20375;-68
2021/12/29 04:18:27;;;;;;;3.83;0.65;;;20.30;99.90;;;;;;4992797;28;20042;-67
2021/12/29 04:21:03;;;;;;;1.42;0.50;;;20.20;99.90;;;;;;4995061;28;20026;-68
2021/12/29 04:23:36;;;;;;;2.63;0.90;;;20.20;99.90;;;;;;4995869;28;20387;-68
2021/12/29 04:26:07;;;;;;;1.25;0.50;;;20.10;99.90;;;;;;4995547;28;20113;-68
2021/12/29 04:28:35;;;;;;;7.00;0.45;;;20.00;99.90;;;;;;4994888;28;20034;-67
2021/12/29 04:31:07;;;;;;;3.80;0.40;;;20.10;99.90;;;;;;4996113;28;20046;-68
2021/12/29 04:33:36;;;;;;;3.70;0.85;;;20.20;99.90;;;;;;4995763;28;20113;-69
2021/12/29 04:36:05;;;;;;;4.60;0.60;;;20.10;99.90;;;;;;4995790;28;20027;-68
2021/12/29 04:38:32;;;;;;;1.77;0.70;;;20.20;99.90;;;;;;4995565;28;20041;-68
2021/12/29 04:41:00;;;;;;;1.23;0.50;;;20.30;99.90;;;;;;4995670;28;20018;-69
2021/12/29 04:43:27;;;;;;;1.08;0.47;;;20.30;99.90;;;;;;4995285;28;20029;-71
2021/12/29 04:45:56;;;;;;;2.47;0.50;;;20.40;99.90;;;;;;4995428;28;20027;-68
2021/12/29 04:48:24;;;;;;;1.10;0.50;;;20.50;99.90;;;;;;4995300;28;20408;-68
2021/12/29 04:51:03;;;;;;;1.35;0.40;;;20.50;99.90;;;;;;4995524;28;20085;-69
2021/12/29 04:53:31;;;;;;;4.30;1.00;;;20.50;99.90;;;;;;4995261;28;20042;-74
2021/12/29 04:55:58;;;;;;;5.75;0.50;;;20.60;99.90;;;;;;4995434;28;20018;-76
2021/12/29 04:58:25;;;;;;;1.58;0.50;;;20.80;99.90;;;;;;4995297;28;20149;-71
2021/12/29 05:00:53;;;;;;;5.25;0.52;;;20.90;99.90;;;;;;4995245;28;20018;-71
2021/12/29 05:03:21;;;;;;;4.75;0.65;;;20.80;99.90;;;;;;4991790;28;20030;-76
2021/12/29 05:05:55;;;;;;;1.75;0.60;;;20.90;99.90;;;;;;4993650;28;20096;-70
2021/12/29 05:08:27;;;;;;;0.52;0.40;;;20.80;99.90;;;;;;4995233;28;20019;-73
2021/12/29 05:11:06;;;;;;;0.88;0.30;;;20.90;99.90;;;;;;4995100;28;20030;-71
2021/12/29 05:13:36;;;;;;;1.60;0.45;;;20.90;99.90;;;;;;4994947;28;20479;-78
2021/12/29 05:16:03;;;;;;;2.15;0.50;;;21.00;99.90;;;;;;4994946;28;20033;-69
2021/12/29 05:18:34;;;;;;;3.03;0.57;;;21.20;99.90;;;;;;4995015;28;20600;-77
2021/12/29 05:21:03;;;;;;;2.10;0.63;;;21.40;99.90;;;;;;4995157;28;20022;-77
2021/12/29 05:23:31;;;;;;;2.40;0.65;;;21.60;99.90;;;;;;4994702;28;20026;-68
2021/12/29 05:25:58;;;;;;;1.30;0.30;;;21.70;99.90;;;;;;4994377;28;20511;-68
2021/12/29 05:28:26;;;;;;;2.95;0.43;;;21.70;99.90;;;;;;4994561;28;20115;-68
2021/12/29 05:30:54;;;;;;;0.35;0.25;;;21.80;99.90;;;;;;4994484;28;20018;-68
2021/12/29 05:33:22;;;;;;;2.63;0.60;;;21.80;99.90;;;;;;4994664;28;20022;-68
2021/12/29 05:35:49;;;;;;;3.03;0.50;;;21.70;99.90;;;;;;4994942;28;20110;-68
2021/12/29 05:38:17;;;;;;;2.72;0.63;;;21.80;99.90;;;;;;4994688;28;20050;-68
2021/12/29 05:40:45;;;;;;;2.80;0.60;;;22.00;99.90;;;;;;4993468;28;20490;-68
2021/12/29 05:43:12;;;;;;;2.75;0.28;;;22.20;99.90;;;;;;4994701;28;20026;-68
2021/12/29 05:45:39;;;;;;;1.00;0.20;;;22.30;99.90;;;;;;4994564;28;20030;-70
2021/12/29 05:48:07;;;;;;;0.98;0.43;;;22.40;99.90;;;;;;4994385;28;20030;-68
2021/12/29 05:50:34;;;;;;;2.17;0.30;;;22.30;99.90;;;;;;4995072;28;20033;-68
2021/12/29 05:53:02;;;;;;;4.38;0.50;;;22.30;99.90;;;;;;4994760;28;20018;-69
2021/12/29 05:55:30;;;;;;;0.70;0.30;;;22.40;99.90;;;;;;4994603;28;20026;-68
2021/12/29 05:57:58;;;;;;;4.07;0.30;;;22.50;99.90;;;;;;4993665;28;20034;-68
2021/12/29 06:00:26;;;;;;;3.22;0.47;;;22.50;99.90;;;;;;4994370;28;20018;-68
2021/12/29 06:02:55;;;;;;;4.30;0.45;;;22.40;99.90;;;;;;4994245;28;20566;-68
2021/12/29 06:05:24;;;;;;;1.88;0.40;;;22.20;99.90;;;;;;4993983;28;20037;-68
2021/12/29 06:07:51;;;;;;;1.65;0.30;;;22.10;99.90;;;;;;4994517;28;20143;-76
2021/12/29 06:10:19;;;;;;;2.67;0.40;;;22.30;99.90;;;;;;4992586;28;20045;-68
2021/12/29 06:12:47;;;;;;;3.15;0.55;;;22.40;99.90;;;;;;4996016;28;20023;-72
2021/12/29 06:15:14;;;;;;;1.38;0.30;;;22.10;99.90;;;;;;4991981;28;20030;-69
2021/12/29 06:17:42;;;;;;;5.43;0.40;;;21.90;99.90;;;;;;5000174;28;20101;-68
2021/12/29 06:20:12;;;;;;;6.53;0.63;;;21.70;99.90;;;;;;4992579;28;20497;-77
2021/12/29 06:22:41;;;;;;;2.05;0.30;;;21.70;99.90;;;;;;4998665;28;20029;-76
2021/12/29 06:25:11;;;;;;;1.73;0.40;;;21.70;99.90;;;;;;4999293;28;20017;-72
2021/12/29 06:27:39;;;;;;;3.00;1.00;;;21.70;99.90;;;;;;4998285;28;20174;-77
2021/12/29 06:30:09;;;;;;;2.38;0.40;;;21.50;99.90;;;;;;4992521;28;20045;-77
2021/12/29 06:32:37;;;;;;;3.70;0.40;;;21.30;99.90;;;;;;5007511;28;20029;-77
2021/12/29 06:35:06;;;;;;;1.95;0.70;;;21.30;99.90;;;;;;4997921;28;20489;-68
2021/12/29 06:37:34;;;;;;;1.10;0.45;;;21.40;99.90;;;;;;4995567;28;20444;-68
2021/12/29 06:40:05;;;;;;;2.15;0.52;;;21.40;99.90;;;;;;5006657;28;20027;-70
2021/12/29 06:42:32;;;;;;;1.92;0.35;;;21.30;99.90;;;;;;4997254;28;20026;-78
2021/12/29 06:45:00;;;;;;;4.82;0.73;;;21.00;99.90;;;;;;4995885;28;20045;-77
2021/12/29 06:47:27;;;;;;;1.92;0.77;;;20.90;99.90;;;;;;4994731;28;20019;-78
2021/12/29 06:49:55;;;;;;;3.30;0.90;;;20.90;99.90;;;;;;4996042;28;20027;-68
2021/12/29 06:52:23;;;;;;;2.63;1.05;;;20.90;99.90;;;;;;4991240;28;20031;-68
2021/12/29 06:54:51;;;;;;;2.15;1.15;;;20.90;99.90;;;;;;4993690;28;20422;-78
2021/12/29 06:57:19;;;;;;;5.05;1.98;;;20.90;99.90;;;;;;5000327;28;20084;-78
2021/12/29 06:59:46;;;;;;;4.43;1.52;;;20.90;99.90;;;;;;4997102;28;20072;-76
2021/12/29 07:02:17;;;;;;;4.72;2.13;;;20.80;99.90;;;;;;5004410;28;20022;-71
2021/12/29 07:04:45;;;;;;;3.63;1.45;;;20.90;99.90;;;;;;5004657;28;20042;-72
2021/12/29 07:07:12;;;;;;;3.33;1.40;;;20.90;99.90;;;;;;5003556;28;20019;-70
2021/12/29 07:09:40;;;;;;;1.33;0.63;;;21.10;99.90;;;;;;5000917;28;20058;-78
2021/12/29 07:12:07;;;;;;;1.77;0.38;;;21.10;99.90;;;;;;5008631;28;20077;-77
2021/12/29 07:14:38;;;;;;;1.08;0.55;;;21.10;99.90;;;;;;5006459;28;20027;-80
2021/12/29 07:17:05;;;;;;;4.72;0.73;;;21.10;99.90;;;;;;5008933;28;20041;-79
2021/12/29 07:19:33;;;;;;;1.55;0.65;;;21.10;99.90;;;;;;5008345;28;20042;-78
2021/12/29 07:22:02;;;;;;;3.13;0.60;;;21.00;99.90;;;;;;5004526;28;20041;-77
2021/12/29 07:24:29;;;;;;;4.00;0.65;;;21.10;99.90;;;;;;4997979;28;20038;-68
2021/12/29 07:26:56;;;;;;;2.53;0.47;;;21.00;99.90;;;;;;4999576;28;20049;-70
2021/12/29 07:29:24;;;;;;;1.33;0.20;;;21.00;99.90;;;;;;4994610;28;20101;-74
2021/12/29 07:31:53;;;;;;;2.70;0.52;;;20.90;99.90;;;;;;5007177;28;20026;-69
2021/12/29 07:34:21;;;;;;;1.60;0.73;;;20.90;99.90;;;;;;5009252;28;20452;-69
2021/12/29 07:36:49;;;;;;;2.35;1.08;;;20.80;99.90;;;;;;5005027;28;20026;-69
2021/12/29 07:39:17;;;;;;;0.65;0.47;;;21.00;99.90;;;;;;5002496;28;20038;-68
2021/12/29 07:41:46;;;;;;;3.15;1.05;;;21.50;99.90;;;;;;5005604;28;20014;-67
2021/12/29 07:44:15;;;;;;;0.80;0.47;;;22.00;99.90;;;;;;5006054;28;20455;-69
2021/12/29 07:46:44;;;;;;;1.92;0.50;;;22.60;99.90;;;;;;4998106;28;20026;-77
2021/12/29 07:49:12;;;;;;;4.93;0.65;;;23.20;99.90;;;;;;4998413;28;20031;-75
2021/12/29 07:51:41;;;;;;;4.60;0.50;;;23.40;99.90;;;;;;5006073;28;20053;-69
2021/12/29 07:54:09;;;;;;;2.53;0.85;;;23.70;99.90;;;;;;5005878;28;20030;-69
2021/12/29 07:56:37;;;;;;;2.30;0.50;;;23.70;99.90;;;;;;5005387;28;20024;-70
2021/12/29 07:59:04;;;;;;;1.75;0.73;;;23.10;99.90;;;;;;5004958;28;20042;-69
2021/12/29 08:01:32;;;;;;;1.15;0.40;;;22.40;99.90;;;;;;5005572;28;20021;-69
2021/12/29 08:04:01;;;;;;;1.33;0.38;;;21.80;99.90;;;;;;5003936;28;20371;-73
2021/12/29 08:06:28;;;;;;;8.35;0.82;;;21.40;99.90;;;;;;5004725;28;20466;-72
2021/12/29 08:08:56;;;;;;;3.78;0.70;;;21.00;99.90;;;;;;5004799;28;20033;-68
2021/12/29 08:11:24;;;;;;;1.42;0.30;;;20.70;99.90;;;;;;5003869;28;20017;-69
2021/12/29 08:13:51;;;;;;;0.98;0.30;;;20.50;99.90;;;;;;4994883;28;20033;-68
2021/12/29 08:16:19;;;;;;;1.40;0.30;;;20.40;99.90;;;;;;4996161;28;20033;-67
2021/12/29 08:18:48;;;;;;;2.20;0.32;;;20.20;99.90;;;;;;5003799;28;20056;-71
2021/12/29 08:21:16;;;;;;;2.72;0.30;;;20.10;99.90;;;;;;5004302;28;20510;-67
2021/12/29 08:23:43;;;;;;;4.35;0.40;;;19.90;99.90;;;;;;5004425;28;20014;-68
2021/12/29 08:26:11;;;;;;;3.45;0.82;;;19.80;99.90;;;;;;5005299;28;20047;-67
2021/12/29 08:28:38;;;;;;;0.55;0.25;;;19.80;99.90;;;;;;5001614;28;20026;-67
2021/12/29 08:31:06;;;;;;;5.78;0.50;;;19.70;99.90;;;;;;4998913;28;20037;-74
2021/12/29 08:33:37;;;;;;;2.33;0.50;;;19.70;99.90;;;;;;4993742;28;20029;-73
2021/12/29 08:36:08;;;;;;;2.88;0.65;;;19.60;99.90;;;;;;4992837;28;20026;-74
2021/12/29 08:38:36;;;;;;;0.82;0.65;;;19.50;99.90;;;;;;4996642;28;20026;-76
2021/12/29 08:41:03;;;;;;;0.90;0.45;;;19.40;99.90;;;;;;4997155;28;20022;-77
2021/12/29 08:43:31;;;;;;;0.80;0.60;;;19.40;99.90;;;;;;5005669;28;20041;-74
2021/12/29 08:45:59;;;;;;;1.95;0.40;;;19.40;99.90;;;;;;5001272;28;20157;-74
2021/12/29 08:48:27;;;;;;;4.00;0.70;;;19.30;99.90;;;;;;5003744;28;20475;-74
2021/12/29 08:50:58;;;;;;;3.90;1.02;;;19.20;99.90;;;;;;5003865;28;20096;-74
2021/12/29 08:53:26;;;;;;;3.60;0.32;;;19.20;99.90;;;;;;5003088;28;20034;-73
2021/12/29 08:55:57;;;;;;;0.88;0.68;;;19.10;99.90;;;;;;5004186;28;20391;-76
2021/12/29 08:58:27;;;;;;;5.57;1.00;;;19.10;99.90;;;;;;4997490;28;20034;-68
2021/12/29 09:00:58;;;;;;;1.17;0.50;;;19.00;99.90;;;;;;4991809;28;20033;-71
2021/12/29 09:03:26;;;;;;;4.43;1.00;;;19.00;99.90;;;;;;4993581;28;20049;-68
2021/12/29 09:05:53;;;;;;;3.10;0.85;;;18.90;99.90;;;;;;4994911;28;20737;-71
2021/12/29 09:08:21;;;;;;;1.98;0.57;;;18.90;99.90;;;;;;4991678;28;20022;-72
2021/12/29 09:10:49;;;;;;;2.22;0.40;;;18.80;99.90;;;;;;4992745;28;20105;-68
2021/12/29 09:13:17;;;;;;;4.15;0.85;;;18.70;99.90;;;;;;4995526;28;20030;-72
2021/12/29 09:15:45;;;;;;;2.72;0.70;;;18.60;99.90;;;;;;4995471;28;20494;-72
2021/12/29 09:18:13;;;;;;;2.08;0.35;;;18.60;99.90;;;;;;4988168;28;20084;-69
2021/12/29 09:20:45;;;;;;;3.00;0.70;;;18.50;99.90;;;;;;4994353;28;20438;-73
2021/12/29 09:23:14;;;;;;;4.18;0.73;;;18.40;99.90;;;;;;4994785;28;20029;-72
2021/12/29 09:25:44;;;;;;;1.27;0.30;;;18.30;99.90;;;;;;4997796;28;20387;-70
2021/12/29 09:28:14;;;;;;;2.33;0.50;;;18.20;99.90;;;;;;4999418;28;20018;-68
2021/12/29 09:30:45;;;;;;;1.60;0.50;;;18.10;99.90;;;;;;4990480;28;20490;-68
2021/12/29 09:33:15;;;;;;;1.48;0.50;;;18.10;99.90;;;;;;4976803;28;20476;-72
2021/12/29 09:35:47;;;;;;;2.83;0.28;;;18.00;99.90;;;;;;4980128;28;20399;-69
2021/12/29 09:38:16;;;;;;;1.33;0.43;;;17.90;99.90;;;;;;4984768;28;20042;-68
2021/12/29 09:40:46;;;;;;;1.35;0.30;;;17.80;99.90;;;;;;4987915;28;20467;-68
2021/12/29 09:43:15;;;;;;;2.22;0.40;;;17.80;99.90;;;;;;4976481;28;20071;-71
2021/12/29 09:45:45;;;;;;;3.75;0.55;;;17.70;99.90;;;;;;4985911;28;20482;-72
2021/12/29 09:48:14;;;;;;;1.55;0.47;;;17.70;99.90;;;;;;4987737;28;20141;-68
2021/12/29 09:50:43;;;;;;;1.17;0.43;;;17.60;99.90;;;;;;4989166;28;20029;-70
2021/12/29 09:53:12;;;;;;;1.35;0.47;;;17.60;99.90;;;;;;4973319;28;20026;-69
2021/12/29 09:55:40;;;;;;;3.97;0.50;;;17.50;99.90;;;;;;4973894;28;20581;-69
2021/12/29 09:58:09;;;;;;;2.47;0.35;;;17.50;99.90;;;;;;4980556;28;20037;-68
2021/12/29 10:00:50;;;;;;;0.75;0.40;;;17.50;99.90;;;;;;4989595;28;20022;-70
2021/12/29 10:03:24;;;;;;;3.35;0.70;;;17.60;99.90;;;;;;4990184;28;20035;-71
2021/12/29 10:05:55;;;;;;;2.50;0.50;;;17.60;99.90;;;;;;4988796;28;20475;-68
2021/12/29 10:08:38;;;;;;;5.88;0.60;;;17.60;99.90;;;;;;4989733;28;20026;-69
2021/12/29 10:11:09;;;;;;;2.47;0.75;;;17.50;99.90;;;;;;4990189;28;20022;-68
2021/12/29 10:13:41;;;;;;;2.97;0.75;;;17.40;99.90;;;;;;4990305;28;20018;-68
2021/12/29 10:16:18;;;;;;;2.47;0.43;;;17.40;99.90;;;;;;4989449;28;20026;-67
2021/12/29 10:18:53;;;;;;;3.88;0.45;;;17.30;99.90;;;;;;4990052;28;20030;-68
2021/12/29 10:21:26;;;;;;;3.75;0.75;;;17.30;99.90;;;;;;4989583;28;20022;-72
2021/12/29 10:23:56;;;;;;;2.40;0.40;;;17.30;99.90;;;;;;4989997;28;20030;-69
2021/12/29 10:26:30;;;;;;;1.55;0.40;;;17.20;99.90;;;;;;4989608;28;20056;-73
2021/12/29 10:29:03;;;;;;;2.15;0.30;;;17.30;99.90;;;;;;4990253;28;20643;-69
2021/12/29 10:31:41;;;;;;;5.10;0.30;;;17.30;99.90;;;;;;4985946;28;20376;-70
2021/12/29 10:34:21;;;;;;;1.38;0.60;;;17.30;99.90;;;;;;4989776;28;20113;-68
2021/12/29 10:37:04;;;;;;;1.13;0.32;;;17.30;99.90;;;;;;4990113;28;20364;-69
2021/12/29 10:39:34;;;;;;;3.88;0.85;;;17.30;99.90;;;;;;4989936;28;20030;-68
2021/12/29 10:42:13;;;;;;;3.05;0.40;;;17.30;99.90;;;;;;4989404;28;20022;-70
2021/12/29 10:44:44;;;;;;;3.47;0.98;;;17.30;99.90;;;;;;4989993;28;20073;-70
2021/12/29 10:47:16;;;;;;;3.53;0.45;;;17.20;99.90;;;;;;4989976;28;20034;-69
2021/12/29 10:50:10;;;;;;;4.80;0.63;;;17.20;99.90;;;;;;4989948;28;20110;-72
2021/12/29 10:52:43;;;;;;;1.55;0.47;;;17.10;99.90;;;;;;4989905;28;20073;-68
2021/12/29 10:55:15;;;;;;;1.27;0.60;;;17.00;99.90;;;;;;4989804;28;20030;-73
2021/12/29 10:57:44;;;;;;;1.45;0.47;;;16.90;99.90;;;;;;4989752;28;20504;-68
2021/12/29 11:00:18;;;;;;;2.67;0.57;;;16.90;99.90;;;;;;4989918;28;20050;-68
2021/12/29 11:02:46;;;;;;;4.70;0.40;;;16.80;99.90;;;;;;4989813;28;20146;-69
2021/12/29 11:05:14;;;;;;;1.08;0.45;;;16.70;99.90;;;;;;4989613;28;20026;-70
2021/12/29 11:07:43;;;;;;;6.70;0.52;;;16.70;99.90;;;;;;4989242;28;20468;-69
2021/12/29 11:10:13;;;;;;;3.58;0.55;;;16.60;99.90;;;;;;4989714;28;20052;-68
2021/12/29 11:12:55;;;;;;;1.92;0.60;;;16.50;99.90;;;;;;4989211;28;20077;-68
2021/12/29 11:15:27;;;;;;;9.00;0.52;;;16.40;99.90;;;;;;4989329;28;20027;-68
2021/12/29 11:18:00;;;;;;;1.85;0.73;;;16.40;99.90;;;;;;4989604;28;20534;-68
2021/12/29 11:20:31;;;;;;;2.83;0.47;;;16.40;99.90;;;;;;4989630;28;20144;-68
2021/12/29 11:23:14;;;;;;;2.10;0.40;;;16.40;99.90;;;;;;4990580;28;20015;-68
2021/12/29 11:25:44;;;;;;;0.50;0.22;;;16.30;99.90;;;;;;4992316;28;20771;-69
2021/12/29 11:28:29;;;;;;;1.95;0.73;;;16.30;99.90;;;;;;4994659;28;20022;-70
2021/12/29 11:31:00;;;;;;;3.28;0.63;;;16.20;99.90;;;;;;4994881;28;20031;-68
2021/12/29 11:33:31;;;;;;;0.85;0.40;;;16.20;99.90;;;;;;4995358;28;20029;-69
2021/12/29 11:35:59;;;;;;;8.90;0.82;;;16.20;99.90;;;;;;4995426;28;20045;-71
2021/12/29 11:38:28;;;;;;;2.70;0.88;;;16.10;99.90;;;;;;4991785;28;20074;-68
2021/12/29 11:41:00;;;;;;;5.40;0.55;;;16.10;99.90;;;;;;4994751;28;20360;-69
2021/12/29 11:43:28;;;;;;;1.23;0.40;;;16.10;99.90;;;;;;4994494;28;20093;-68
2021/12/29 11:45:57;;;;;;;5.43;0.52;;;16.10;99.90;;;;;;4994300;28;20471;-69
2021/12/29 11:48:26;;;;;;;0.85;0.40;;;16.00;99.90;;;;;;4994612;28;20027;-68
2021/12/29 11:51:03;;;;;;;1.00;0.32;;;16.00;99.90;;;;;;4995343;28;20033;-73
2021/12/29 11:53:54;;;;;;;0.77;0.40;;;16.00;99.90;;;;;;4994241;28;20495;-68
2021/12/29 11:56:23;;;;;;;1.02;0.38;;;16.00;99.90;;;;;;4994913;28;20076;-68
2021/12/29 11:58:51;;;;;;;1.65;0.50;;;16.00;99.90;;;;;;4995152;28;20034;-68
2021/12/29 12:01:23;;;;;;;0.28;0.20;;;16.00;99.90;;;;;;4995156;28;20061;-68
2021/12/29 12:03:52;;;;;;;1.70;0.68;;;15.90;99.90;;;;;;4993268;28;20034;-68
2021/12/29 12:06:30;;;;;;;2.53;0.80;;;15.90;99.90;;;;;;4995220;28;20018;-68
2021/12/29 12:09:17;;;;;;;3.08;0.43;;;15.80;99.90;;;;;;4994216;28;20030;-70
2021/12/29 12:11:56;;;;;;;1.10;0.47;;;15.80;99.90;;;;;;4994863;28;20037;-68
2021/12/29 12:14:34;;;;;;;1.40;0.47;;;15.80;99.90;;;;;;4994950;28;20041;-68
2021/12/29 12:17:10;;;;;;;4.30;0.90;;;15.80;99.90;;;;;;4994910;28;20084;-69
2021/12/29 12:19:38;;;;;;;3.33;0.63;;;15.80;99.90;;;;;;4994839;28;20038;-68
2021/12/29 12:22:11;;;;;;;1.88;1.08;;;15.80;99.90;;;;;;5002436;28;20029;-68
2021/12/29 12:25:00;;;;;;;3.38;0.50;;;15.80;99.90;;;;;;5015909;28;20026;-68
2021/12/29 12:27:32;;;;;;;6.57;0.60;;;15.80;99.90;;;;;;5015536;28;20056;-68
2021/12/29 12:30:13;;;;;;;4.25;1.00;;;15.70;99.90;;;;;;5016072;28;20474;-68
2021/12/29 12:32:44;;;;;;;3.58;0.68;;;15.70;99.90;;;;;;5015577;28;20065;-73
2021/12/29 12:35:13;;;;;;;1.20;0.55;;;15.70;99.90;;;;;;5015708;28;20032;-68
2021/12/29 12:37:51;;;;;;;1.77;0.40;;;15.70;99.90;;;;;;5015521;28;20022;-68
2021/12/29 12:40:32;;;;;;;1.63;0.32;;;15.60;99.90;;;;;;5015686;28;20072;-68
2021/12/29 12:43:07;;;;;;;2.25;0.68;;;15.60;99.90;;;;;;5015648;28;20030;-69
2021/12/29 12:45:37;;;;;;;2.15;0.40;;;15.60;99.90;;;;;;5015983;28;20467;-68
2021/12/29 12:48:19;;;;;;;3.40;0.45;;;15.60;99.90;;;;;;5015395;28;20030;-68
2021/12/29 12:50:48;;;;;;;2.55;0.70;;;15.50;99.90;;;;;;5015385;28;20534;-69
2021/12/29 12:53:27;;;;;;;1.63;0.50;;;15.50;99.90;;;;;;5015449;28;20034;-68
2021/12/29 12:55:56;;;;;;;6.38;1.08;;;15.50;99.90;;;;;;5015246;28;20522;-68
2021/12/29 12:58:28;;;;;;;6.40;1.10;;;15.50;99.90;;;;;;5015080;28;20030;-69
2021/12/29 13:01:25;;;;;;;3.75;0.88;;;15.40;99.90;;;;;;5015311;28;20463;-68